createdAt,value
2018-09-20T00:02:17.911Z,21.81
2018-09-20T00:04:44.313Z,21.80
2018-09-20T00:07:10.715Z,21.77
2018-09-20T00:09:37.172Z,21.73
2018-09-20T00:12:03.534Z,21.72
2018-09-20T00:14:29.943Z,21.76
2018-09-20T00:16:56.288Z,21.72
2018-09-20T00:19:22.611Z,21.70
2018-09-20T00:21:49.007Z,21.72
2018-09-20T00:24:15.385Z,21.69
2018-09-20T00:26:41.769Z,21.66
2018-09-20T00:29:08.186Z,21.63
2018-09-20T00:31:34.562Z,21.64
2018-09-20T00:34:00.928Z,21.63
2018-09-20T00:36:27.287Z,21.59
2018-09-20T00:38:53.722Z,21.59
2018-09-20T00:41:20.099Z,21.58
2018-09-20T00:43:46.423Z,21.54
2018-09-20T00:46:12.806Z,21.54
2018-09-20T00:48:39.152Z,21.54
2018-09-20T00:51:05.603Z,21.51
2018-09-20T00:53:31.946Z,21.49
2018-09-20T00:55:58.386Z,21.52
2018-09-20T00:58:24.782Z,21.50
2018-09-20T01:00:51.179Z,21.47
2018-09-20T01:03:17.543Z,21.25
2018-09-20T01:05:43.881Z,21.24
2018-09-20T01:08:10.300Z,21.09
2018-09-20T01:10:36.646Z,21.04
2018-09-20T01:13:03.000Z,21.04
2018-09-20T01:15:29.372Z,20.89
2018-09-20T01:17:55.722Z,20.94
2018-09-20T01:20:22.154Z,20.87
2018-09-20T01:22:48.522Z,20.80
2018-09-20T01:25:14.918Z,20.80
2018-09-20T01:27:41.273Z,20.78
2018-09-20T01:30:07.676Z,20.76
2018-09-20T01:32:34.038Z,20.74
2018-09-20T01:35:00.389Z,20.77
2018-09-20T01:37:26.757Z,20.70
2018-09-20T01:39:53.236Z,20.65
2018-09-20T01:42:19.619Z,20.69
2018-09-20T01:44:45.973Z,20.65
2018-09-20T01:47:12.334Z,20.68
2018-09-20T01:49:38.695Z,20.72
2018-09-20T01:52:05.092Z,20.62
2018-09-20T01:54:31.516Z,20.54
2018-09-20T01:56:57.992Z,20.63
2018-09-20T01:59:24.386Z,20.61
2018-09-20T02:01:50.764Z,20.62
2018-09-20T02:04:17.144Z,20.62
2018-09-20T02:06:43.546Z,20.57
2018-09-20T02:09:09.940Z,20.60
2018-09-20T02:11:36.347Z,20.55
2018-09-20T02:14:02.720Z,20.57
2018-09-20T02:16:29.087Z,20.56
2018-09-20T02:18:55.466Z,20.49
2018-09-20T02:21:21.911Z,20.47
2018-09-20T02:23:48.314Z,20.49
2018-09-20T02:26:14.729Z,20.47
2018-09-20T02:28:41.085Z,20.48
2018-09-20T02:31:07.484Z,20.49
2018-09-20T02:33:33.857Z,20.45
2018-09-20T02:36:00.207Z,20.35
2018-09-20T02:38:26.585Z,20.44
2018-09-20T02:40:52.975Z,20.36
2018-09-20T02:43:19.479Z,20.42
2018-09-20T02:45:45.891Z,20.42
2018-09-20T02:48:12.782Z,20.42
2018-09-20T02:50:39.267Z,20.45
2018-09-20T02:53:05.626Z,20.39
2018-09-20T02:55:32.053Z,20.37
2018-09-20T02:57:58.496Z,20.36
2018-09-20T03:00:24.905Z,20.30
2018-09-20T03:02:51.234Z,20.27
2018-09-20T03:05:17.590Z,20.29
2018-09-20T03:07:44.026Z,20.35
2018-09-20T03:10:10.506Z,20.37
2018-09-20T03:12:36.906Z,20.39
2018-09-20T03:15:03.383Z,20.44
2018-09-20T03:17:29.778Z,20.49
2018-09-20T03:19:56.162Z,20.48
2018-09-20T03:22:22.528Z,20.53
2018-09-20T03:24:48.917Z,20.49
2018-09-20T03:27:15.290Z,20.47
2018-09-20T03:29:41.830Z,20.48
2018-09-20T03:32:08.293Z,20.55
2018-09-20T03:34:34.684Z,20.49
2018-09-20T03:37:01.045Z,20.55
2018-09-20T03:39:27.414Z,20.48
2018-09-20T03:41:53.779Z,20.53
2018-09-20T03:44:20.168Z,20.55
2018-09-20T03:46:46.568Z,20.55
2018-09-20T03:49:12.909Z,20.57
2018-09-20T03:51:39.341Z,20.55
2018-09-20T03:54:05.818Z,20.53
2018-09-20T03:56:32.207Z,20.55
2018-09-20T03:58:58.881Z,20.51
2018-09-20T04:01:25.416Z,20.53
2018-09-20T04:03:51.817Z,20.55
2018-09-20T04:06:18.206Z,20.51
2018-09-20T04:08:44.569Z,20.49
2018-09-20T04:11:10.976Z,20.51
2018-09-20T04:13:37.343Z,20.50
2018-09-20T04:16:03.737Z,20.50
2018-09-20T04:18:30.099Z,20.51
2018-09-20T04:20:56.459Z,20.49
2018-09-20T04:23:22.841Z,20.48
2018-09-20T04:25:49.221Z,20.51
2018-09-20T04:28:15.622Z,20.51
2018-09-20T04:30:42.031Z,20.53
2018-09-20T04:33:08.383Z,20.57
2018-09-20T04:35:34.711Z,20.57
2018-09-20T04:38:01.113Z,20.63
2018-09-20T04:40:27.620Z,20.65
2018-09-20T04:42:53.977Z,20.68
2018-09-20T04:45:20.519Z,20.81
2018-09-20T04:47:46.868Z,20.79
2018-09-20T04:50:13.327Z,20.81
2018-09-20T04:52:39.755Z,20.93
2018-09-20T04:55:06.161Z,20.95
2018-09-20T04:57:32.686Z,20.96
2018-09-20T04:59:59.177Z,20.96
2018-09-20T05:02:25.442Z,21.04
2018-09-20T05:04:51.919Z,21.02
2018-09-20T05:07:18.415Z,21.11
2018-09-20T05:09:44.843Z,21.15
2018-09-20T05:12:11.217Z,21.16
2018-09-20T05:14:37.592Z,21.19
2018-09-20T05:17:04.157Z,21.20
2018-09-20T05:19:30.575Z,21.33
2018-09-20T05:21:56.947Z,21.30
2018-09-20T05:24:23.385Z,21.36
2018-09-20T05:26:49.766Z,21.36
2018-09-20T05:29:16.117Z,21.43
2018-09-20T05:31:42.526Z,21.45
2018-09-20T05:34:08.933Z,21.49
2018-09-20T05:36:35.305Z,21.47
2018-09-20T05:39:01.698Z,21.52
2018-09-20T05:41:28.082Z,21.52
2018-09-20T05:43:54.458Z,21.55
2018-09-20T05:46:20.876Z,21.62
2018-09-20T05:48:47.243Z,21.64
2018-09-20T05:51:13.605Z,21.70
2018-09-20T05:53:40.107Z,21.75
2018-09-20T05:56:06.552Z,21.79
2018-09-20T05:58:32.976Z,21.84
2018-09-20T06:00:59.373Z,21.83
2018-09-20T06:03:25.776Z,21.90
2018-09-20T06:05:52.141Z,21.91
2018-09-20T06:08:18.534Z,21.96
2018-09-20T06:10:44.920Z,22.09
2018-09-20T06:13:11.349Z,21.99
2018-09-20T06:15:37.761Z,22.07
2018-09-20T06:18:04.166Z,22.11
2018-09-20T06:20:30.564Z,22.13
2018-09-20T06:22:56.928Z,22.20
2018-09-20T06:25:23.387Z,22.20
2018-09-20T06:27:49.748Z,22.28
2018-09-20T06:30:16.157Z,22.36
2018-09-20T06:32:42.525Z,22.40
2018-09-20T06:35:08.974Z,22.43
2018-09-20T06:37:35.397Z,22.50
2018-09-20T06:40:01.783Z,22.61
2018-09-20T06:42:28.163Z,22.65
2018-09-20T06:44:54.620Z,22.66
2018-09-20T06:47:21.012Z,22.68
2018-09-20T06:49:47.435Z,22.76
2018-09-20T06:52:13.884Z,22.71
2018-09-20T06:54:40.253Z,22.86
2018-09-20T06:57:06.646Z,22.83
2018-09-20T06:59:33.090Z,22.86
2018-09-20T07:01:59.515Z,22.92
2018-09-20T07:04:25.941Z,22.92
2018-09-20T07:06:52.375Z,22.94
2018-09-20T07:09:18.808Z,22.96
2018-09-20T07:11:45.241Z,23.03
2018-09-20T07:14:11.621Z,23.01
2018-09-20T07:16:38.124Z,23.03
2018-09-20T07:19:04.536Z,23.13
2018-09-20T07:21:31.001Z,23.21
2018-09-20T07:23:57.403Z,23.22
2018-09-20T07:26:23.833Z,23.26
2018-09-20T07:28:50.209Z,23.30
2018-09-20T07:31:16.617Z,23.38
2018-09-20T07:33:43.056Z,23.38
2018-09-20T07:36:09.522Z,23.46
2018-09-20T07:38:36.083Z,23.49
2018-09-20T07:41:02.460Z,23.56
2018-09-20T07:43:28.843Z,23.54
2018-09-20T07:45:55.326Z,23.59
2018-09-20T07:48:21.731Z,23.62
2018-09-20T07:50:48.174Z,23.66
2018-09-20T07:53:15.136Z,23.70
2018-09-20T07:55:42.068Z,23.72
2018-09-20T07:58:08.447Z,23.73
2018-09-20T08:00:34.838Z,23.82
2018-09-20T08:03:02.251Z,23.87
2018-09-20T08:08:03.573Z,23.90
2018-09-20T08:10:29.995Z,23.86
2018-09-20T08:12:58.274Z,23.98
2018-09-20T08:16:19.122Z,23.96
2018-09-20T08:18:46.020Z,24.02
2018-09-20T08:21:12.706Z,24.09
2018-09-20T08:23:39.297Z,24.05
2018-09-20T08:26:05.715Z,24.03
2018-09-20T08:28:32.165Z,24.06
2018-09-20T08:30:58.531Z,24.02
2018-09-20T08:36:05.630Z,24.09
2018-09-20T08:38:33.762Z,24.02
2018-09-20T08:41:00.157Z,24.03
2018-09-20T08:46:01.164Z,23.92
2018-09-20T08:48:28.525Z,23.92
2018-09-20T08:53:27.508Z,23.85
2018-09-20T08:55:53.945Z,23.87
2018-09-20T08:58:20.321Z,23.87
2018-09-20T09:00:46.704Z,23.79
2018-09-20T09:03:13.104Z,23.79
2018-09-20T09:05:39.694Z,23.80
2018-09-20T09:08:06.168Z,23.73
2018-09-20T09:13:08.348Z,23.69
2018-09-20T09:15:34.724Z,23.74
2018-09-20T09:18:01.130Z,23.72
2018-09-20T09:20:27.594Z,23.66
2018-09-20T09:22:53.974Z,23.67
2018-09-20T09:25:20.414Z,23.69
2018-09-20T09:27:46.865Z,23.66
2018-09-20T09:30:13.250Z,23.62
2018-09-20T09:32:39.643Z,23.67
2018-09-20T09:35:06.106Z,23.58
2018-09-20T09:37:32.598Z,23.58
2018-09-20T09:39:58.996Z,23.62
2018-09-20T09:42:25.375Z,23.60
2018-09-20T09:44:51.790Z,23.58
2018-09-20T09:47:18.206Z,23.68
2018-09-20T09:49:44.553Z,23.64
2018-09-20T09:52:11.059Z,23.47
2018-09-20T09:54:37.848Z,23.54
2018-09-20T09:57:04.295Z,23.60
2018-09-20T09:59:31.724Z,23.57
2018-09-20T10:01:58.074Z,23.57
2018-09-20T10:04:24.442Z,23.62
2018-09-20T10:06:50.830Z,23.57
2018-09-20T10:09:17.245Z,23.45
2018-09-20T10:11:43.637Z,23.54
2018-09-20T10:14:10.169Z,23.51
2018-09-20T10:16:36.552Z,23.55
2018-09-20T10:19:02.957Z,23.53
2018-09-20T10:21:30.482Z,23.51
2018-09-20T10:23:57.074Z,23.51
2018-09-20T10:26:23.500Z,23.68
2018-09-20T10:28:50.073Z,23.59
2018-09-20T10:31:16.489Z,23.47
2018-09-20T10:33:42.975Z,23.45
2018-09-20T10:36:09.404Z,23.50
2018-09-20T10:38:35.911Z,23.46
2018-09-20T10:41:02.609Z,23.54
2018-09-20T10:43:29.113Z,23.45
2018-09-20T10:45:55.621Z,23.65
2018-09-20T10:48:25.117Z,23.45
2018-09-20T10:50:51.686Z,23.64
2018-09-20T10:53:20.239Z,23.53
2018-09-20T10:55:46.710Z,23.56
2018-09-20T10:58:13.104Z,23.39
2018-09-20T11:00:41.204Z,23.44
2018-09-20T11:03:07.802Z,23.64
2018-09-20T11:05:38.319Z,23.57
2018-09-20T11:08:04.750Z,23.57
2018-09-20T11:10:31.273Z,23.60
2018-09-20T11:12:57.730Z,23.66
2018-09-20T11:15:25.506Z,23.57
2018-09-20T11:17:51.924Z,23.46
2018-09-20T11:20:18.296Z,23.56
2018-09-20T11:22:44.676Z,23.53
2018-09-20T11:25:11.090Z,23.54
2018-09-20T11:27:37.572Z,23.52
2018-09-20T11:30:03.962Z,23.56
2018-09-20T11:32:31.800Z,23.67
2018-09-20T11:37:30.575Z,23.55
2018-09-20T11:39:56.954Z,23.62
2018-09-20T11:42:23.387Z,23.54
2018-09-20T11:44:49.734Z,23.66
2018-09-20T11:47:16.138Z,23.57
2018-09-20T11:49:42.565Z,23.62
2018-09-20T11:52:08.917Z,23.53
2018-09-20T11:54:35.349Z,23.73
2018-09-20T11:57:01.719Z,23.64
2018-09-20T11:59:28.115Z,23.69
2018-09-20T12:01:54.620Z,23.60
2018-09-20T12:04:21.054Z,23.59
2018-09-20T12:06:47.464Z,23.71
2018-09-20T12:09:13.817Z,23.65
2018-09-20T12:11:40.248Z,23.61
2018-09-20T12:14:06.607Z,23.62
2018-09-20T12:16:32.995Z,23.69
2018-09-20T12:18:59.358Z,23.66
2018-09-20T12:21:25.735Z,23.55
2018-09-20T12:23:52.200Z,23.56
2018-09-20T12:26:18.633Z,23.60
2018-09-20T12:28:45.027Z,23.60
2018-09-20T12:31:11.424Z,23.55
2018-09-20T12:33:37.800Z,23.62
2018-09-20T12:36:04.252Z,23.65
2018-09-20T12:38:30.703Z,23.66
2018-09-20T12:40:57.086Z,23.66
2018-09-20T12:43:23.500Z,23.59
2018-09-20T12:45:50.153Z,23.61
2018-09-20T12:48:16.561Z,23.57
2018-09-20T12:50:42.942Z,23.65
2018-09-20T12:53:09.812Z,23.57
2018-09-20T12:55:36.347Z,23.56
2018-09-20T12:58:02.726Z,23.54
2018-09-20T13:00:29.315Z,23.56
2018-09-20T13:02:55.797Z,23.56
2018-09-20T13:05:22.286Z,23.56
2018-09-20T13:07:48.715Z,23.64
2018-09-20T13:10:15.145Z,23.71
2018-09-20T13:12:41.607Z,23.67
2018-09-20T13:15:08.354Z,23.67
2018-09-20T13:20:08.281Z,23.61
2018-09-20T13:22:34.589Z,23.64
2018-09-20T13:25:00.938Z,23.65
2018-09-20T13:27:27.345Z,23.75
2018-09-20T13:29:53.739Z,23.65
2018-09-20T13:32:20.100Z,23.64
2018-09-20T13:34:46.513Z,23.62
2018-09-20T13:37:13.025Z,23.74
2018-09-20T13:39:39.330Z,23.71
2018-09-20T13:42:05.734Z,23.62
2018-09-20T13:44:32.205Z,23.72
2018-09-20T13:54:39.675Z,23.67
2018-09-20T13:57:06.083Z,23.61
2018-09-20T14:02:06.592Z,23.58
2018-09-20T14:04:32.982Z,23.55
2018-09-20T14:06:59.383Z,23.59
2018-09-20T14:09:25.816Z,23.60
2018-09-20T14:11:52.214Z,23.60
2018-09-20T14:14:18.565Z,23.61
2018-09-20T14:16:44.961Z,23.57
2018-09-20T14:19:11.368Z,23.56
2018-09-20T14:21:37.738Z,23.56
2018-09-20T14:24:04.178Z,23.54
2018-09-20T14:26:30.547Z,23.59
2018-09-20T14:28:56.930Z,23.50
2018-09-20T14:31:23.304Z,23.61
2018-09-20T14:33:49.659Z,23.56
2018-09-20T14:36:16.031Z,23.58
2018-09-20T14:38:42.400Z,23.50
2018-09-20T14:41:08.797Z,23.54
2018-09-20T14:43:35.265Z,23.53
2018-09-20T14:46:01.689Z,23.55
2018-09-20T14:48:28.097Z,23.54
2018-09-20T14:50:54.467Z,23.49
2018-09-20T14:53:20.895Z,23.49
2018-09-20T14:55:47.290Z,23.49
2018-09-20T14:58:13.684Z,23.53
2018-09-20T15:00:40.090Z,23.47
2018-09-20T15:03:06.439Z,23.43
2018-09-20T15:05:32.789Z,23.47
2018-09-20T15:07:59.190Z,23.42
2018-09-20T15:10:25.558Z,23.43
2018-09-20T15:12:51.928Z,23.42
2018-09-20T15:15:18.457Z,23.40
2018-09-20T15:17:45.628Z,23.44
2018-09-20T15:20:12.033Z,23.44
2018-09-20T15:22:38.466Z,23.42
2018-09-20T15:25:04.829Z,23.45
2018-09-20T15:27:31.183Z,23.42
2018-09-20T15:29:57.615Z,23.44
2018-09-20T15:32:24.076Z,23.45
2018-09-20T15:34:50.427Z,23.43
2018-09-20T15:37:16.894Z,23.41
2018-09-20T15:39:43.332Z,23.40
2018-09-20T15:42:09.709Z,23.40
2018-09-20T15:44:36.089Z,23.36
2018-09-20T15:47:02.453Z,23.37
2018-09-20T15:49:28.807Z,23.38
2018-09-20T15:51:55.199Z,23.34
2018-09-20T15:54:21.564Z,23.34
2018-09-20T15:56:47.993Z,23.32
2018-09-20T15:59:14.398Z,23.29
2018-09-20T16:01:40.732Z,23.34
2018-09-20T16:04:07.136Z,23.30
2018-09-20T16:06:33.552Z,23.31
2018-09-20T16:08:59.896Z,23.32
2018-09-20T16:11:26.257Z,23.27
2018-09-20T16:13:52.668Z,23.30
2018-09-20T16:16:19.059Z,23.30
2018-09-20T16:18:45.386Z,23.30
2018-09-20T16:21:11.779Z,23.28
2018-09-20T16:23:38.197Z,23.30
2018-09-20T16:26:04.534Z,23.30
2018-09-20T16:28:30.879Z,23.31
2018-09-20T16:30:57.236Z,23.30
2018-09-20T16:33:23.596Z,23.27
2018-09-20T16:35:49.977Z,23.28
2018-09-20T16:38:16.510Z,23.30
2018-09-20T16:40:42.872Z,23.28
2018-09-20T16:43:09.323Z,23.27
2018-09-20T16:45:35.705Z,23.24
2018-09-20T16:48:02.129Z,23.27
2018-09-20T16:50:28.540Z,23.26
2018-09-20T16:52:54.951Z,23.26
2018-09-20T16:55:21.341Z,23.27
2018-09-20T16:57:47.695Z,23.28
2018-09-20T17:00:14.047Z,23.26
2018-09-20T17:02:40.431Z,23.23
2018-09-20T17:05:06.895Z,23.24
2018-09-20T17:07:33.232Z,23.23
2018-09-20T17:09:59.591Z,23.23
2018-09-20T17:12:25.960Z,23.24
2018-09-20T17:14:52.344Z,23.27
2018-09-20T17:17:18.746Z,23.29
2018-09-20T17:19:45.125Z,23.29
2018-09-20T17:22:11.506Z,23.29
2018-09-20T17:24:37.883Z,23.29
2018-09-20T17:27:04.349Z,23.31
2018-09-20T17:29:30.754Z,23.31
2018-09-20T17:31:57.109Z,23.32
2018-09-20T17:34:24.178Z,23.34
2018-09-20T17:36:50.528Z,23.34
2018-09-20T17:39:16.987Z,23.31
2018-09-20T17:41:43.456Z,23.32
2018-09-20T17:44:09.866Z,23.34
2018-09-20T17:46:36.210Z,23.35
2018-09-20T17:49:02.647Z,23.34
2018-09-20T17:51:28.997Z,23.32
2018-09-20T17:53:55.369Z,23.32
2018-09-20T17:56:21.775Z,23.42
2018-09-20T17:58:48.126Z,23.38
2018-09-20T18:01:14.479Z,23.34
2018-09-20T18:03:40.910Z,23.31
2018-09-20T18:06:07.328Z,23.32
2018-09-20T18:08:33.736Z,23.30
2018-09-20T18:11:00.068Z,23.29
2018-09-20T18:13:26.573Z,23.30
2018-09-20T18:15:52.972Z,23.30
2018-09-20T18:18:19.448Z,23.31
2018-09-20T18:20:45.720Z,23.30
2018-09-20T18:23:12.103Z,23.29
2018-09-20T18:25:38.433Z,23.27
2018-09-20T18:30:37.262Z,23.27
2018-09-20T18:33:03.623Z,23.27
2018-09-20T18:35:30.022Z,23.25
2018-09-20T18:37:56.368Z,23.25
2018-09-20T18:40:22.783Z,23.25
2018-09-20T18:42:49.124Z,23.26
2018-09-20T18:45:15.463Z,23.23
2018-09-20T18:47:41.837Z,23.22
2018-09-20T18:50:08.235Z,23.24
2018-09-20T18:52:34.550Z,23.22
2018-09-20T18:55:01.059Z,23.20
2018-09-20T18:57:27.456Z,23.20
2018-09-20T18:59:53.845Z,23.18
2018-09-20T19:02:20.215Z,23.17
2018-09-20T19:04:46.600Z,23.17
2018-09-20T19:07:12.968Z,23.17
2018-09-20T19:09:39.451Z,23.15
2018-09-20T19:12:05.839Z,23.15
2018-09-20T19:14:32.210Z,23.16
2018-09-20T19:16:58.548Z,23.14
2018-09-20T19:19:24.885Z,23.13
2018-09-20T19:21:51.274Z,23.13
2018-09-20T19:24:17.638Z,23.11
2018-09-20T19:26:44.121Z,23.11
2018-09-20T19:29:10.503Z,23.10
2018-09-20T19:31:36.873Z,23.09
2018-09-20T19:34:03.258Z,23.08
2018-09-20T19:36:29.610Z,23.07
2018-09-20T19:38:56.094Z,23.08
2018-09-20T19:46:25.855Z,23.01
2018-09-20T19:48:52.199Z,23.03
2018-09-20T19:51:18.641Z,23.02
2018-09-20T19:53:45.008Z,23.00
2018-09-20T19:56:11.406Z,22.99
2018-09-20T19:58:37.770Z,22.99
2018-09-20T20:01:04.239Z,22.99
2018-09-20T20:03:30.626Z,22.97
2018-09-20T20:05:56.961Z,22.96
2018-09-20T20:08:23.474Z,22.96
2018-09-20T20:10:49.813Z,22.96
2018-09-20T20:13:16.294Z,22.93
2018-09-20T20:15:42.640Z,22.93
2018-09-20T20:18:09.003Z,22.94
2018-09-20T20:20:35.404Z,22.92
2018-09-20T20:23:01.766Z,22.92
2018-09-20T20:25:28.131Z,22.90
2018-09-20T20:27:54.451Z,22.91
2018-09-20T20:30:20.954Z,22.87
2018-09-20T20:32:47.285Z,22.88
2018-09-20T20:35:13.630Z,22.85
2018-09-20T20:37:39.982Z,22.85
2018-09-20T20:40:06.341Z,22.82
2018-09-20T20:42:32.711Z,22.79
2018-09-20T20:44:59.093Z,22.76
2018-09-20T20:47:25.448Z,22.75
2018-09-20T20:49:51.774Z,22.70
2018-09-20T20:52:18.141Z,22.66
2018-09-20T20:54:44.506Z,22.62
2018-09-20T20:57:10.875Z,22.56
2018-09-20T20:59:37.250Z,22.55
2018-09-20T21:02:03.633Z,22.53
2018-09-20T21:04:29.958Z,22.50
2018-09-20T21:06:56.323Z,22.49
2018-09-20T21:09:22.675Z,22.47
2018-09-20T21:11:49.035Z,22.46
2018-09-20T21:14:15.426Z,22.40
2018-09-20T21:16:42.062Z,22.40
2018-09-20T21:19:08.378Z,22.37
2018-09-20T21:21:34.765Z,22.34
2018-09-20T21:24:01.223Z,22.35
2018-09-20T21:26:27.588Z,22.31
2018-09-20T21:28:53.917Z,22.28
2018-09-20T21:31:20.269Z,22.28
2018-09-20T21:33:46.700Z,22.25
2018-09-20T21:36:13.046Z,22.27
2018-09-20T21:38:39.375Z,22.27
2018-09-20T21:41:05.784Z,22.28
2018-09-20T21:43:32.223Z,22.25
2018-09-20T21:45:58.693Z,22.25
2018-09-20T21:48:25.076Z,22.23
2018-09-20T21:50:51.428Z,22.21
2018-09-20T21:53:17.765Z,22.18
2018-09-20T21:55:44.241Z,22.17
2018-09-20T21:58:10.585Z,22.12
2018-09-20T22:00:36.971Z,22.10
2018-09-20T22:03:03.305Z,22.11
2018-09-20T22:05:29.723Z,22.06
2018-09-20T22:07:56.138Z,22.07
2018-09-20T22:10:22.509Z,22.04
2018-09-20T22:12:48.860Z,22.01
2018-09-20T22:15:15.257Z,21.99
2018-09-20T22:17:41.589Z,21.96
2018-09-20T22:20:08.059Z,21.97
2018-09-20T22:22:34.733Z,21.94
2018-09-20T22:25:01.086Z,21.95
2018-09-20T22:27:27.437Z,21.91
2018-09-20T22:29:53.956Z,21.89
2018-09-20T22:32:20.479Z,21.88
2018-09-20T22:34:47.015Z,21.88
2018-09-20T22:37:13.429Z,21.85
2018-09-20T22:39:39.765Z,21.85
2018-09-20T22:42:06.130Z,21.81
2018-09-20T22:44:32.637Z,21.80
2018-09-20T22:46:59.170Z,21.80
2018-09-20T22:49:25.502Z,21.76
2018-09-20T22:51:51.832Z,21.74
2018-09-20T22:54:18.181Z,21.76
2018-09-20T22:56:44.596Z,21.74
2018-09-20T22:59:10.971Z,21.70
2018-09-20T23:01:37.331Z,21.70
2018-09-20T23:04:03.733Z,21.70
2018-09-20T23:06:30.351Z,21.67
2018-09-20T23:08:56.746Z,21.68
2018-09-20T23:11:23.116Z,21.66
2018-09-20T23:13:49.505Z,21.66
2018-09-20T23:16:15.897Z,21.63
2018-09-20T23:18:42.296Z,21.64
2018-09-20T23:21:08.665Z,21.59
2018-09-20T23:23:35.118Z,21.61
2018-09-20T23:26:01.489Z,21.60
2018-09-20T23:28:27.820Z,21.57
2018-09-20T23:30:54.200Z,21.58
2018-09-20T23:33:20.609Z,21.54
2018-09-20T23:35:46.953Z,21.53
2018-09-20T23:38:13.312Z,21.53
2018-09-20T23:40:39.688Z,21.52
2018-09-20T23:43:06.028Z,21.50
2018-09-20T23:45:32.360Z,21.50
2018-09-20T23:47:58.762Z,21.47
2018-09-20T23:50:25.128Z,21.47
2018-09-20T23:52:51.636Z,21.47
2018-09-20T23:55:18.142Z,21.45
2018-09-20T23:57:44.547Z,21.42
